Terminal Aerodrome Forecast
Issued by NWS

Current Version | Previous Version | Text Only | Print | Product List | Glossary Off
Versions: 1 2 3 4 5 6 7 8 9 10 11 12 13 14 15 16 17 18 19 20 21 22

195
FTUS41 KILN 202336
TAFLUK
TAF
KLUK 202336Z 2100/2124 18006KT P6SM SCT250
     FM210600 19006KT P6SM SCT250 WS020/22035KT
     FM211400 21011G21KT P6SM BKN250
     FM212200 23009KT P6SM BKN150=

USA.gov is the U.S. government's official web portal to all federal, state and local government web resources and services.